sensor_id;sensor_type;location;lat;lon;timestamp;pressure;altitude;pressure_sealevel;temperature;humidity
44198;BME280;30157;55.512;37.764;2024-01-30T00:00:06;101163.31;;;-3.08;100.00
44198;BME280;30157;55.512;37.764;2024-01-30T00:02:32;101126.31;;;-3.28;100.00
44198;BME280;30157;55.512;37.764;2024-01-30T00:05:01;101111.63;;;-3.32;100.00
44198;BME280;30157;55.512;37.764;2024-01-30T00:07:29;101138.56;;;-3.11;100.00
44198;BME280;30157;55.512;37.764;2024-01-30T00:09:55;101133.81;;;-3.06;100.00
44198;BME280;30157;55.512;37.764;2024-01-30T00:12:21;101122.53;;;-3.10;100.00
44198;BME280;30157;55.512;37.764;2024-01-30T00:14:47;101103.13;;;-3.21;100.00
44198;BME280;30157;55.512;37.764;2024-01-30T00:17:12;101083.16;;;-3.28;100.00
44198;BME280;30157;55.512;37.764;2024-01-30T00:19:41;101103.31;;;-3.18;100.00
44198;BME280;30157;55.512;37.764;2024-01-30T00:22:07;101122.97;;;-3.04;100.00
44198;BME280;30157;55.512;37.764;2024-01-30T00:24:33;101076.75;;;-3.35;100.00
44198;BME280;30157;55.512;37.764;2024-01-30T00:26:59;101125.50;;;-3.04;100.00
44198;BME280;30157;55.512;37.764;2024-01-30T00:29:25;101140.00;;;-3.02;100.00
44198;BME280;30157;55.512;37.764;2024-01-30T00:31:55;101119.31;;;-3.07;100.00
44198;BME280;30157;55.512;37.764;2024-01-30T00:34:21;101129.28;;;-2.98;100.00
44198;BME280;30157;55.512;37.764;2024-01-30T00:36:47;101120.63;;;-3.00;100.00
44198;BME280;30157;55.512;37.764;2024-01-30T00:39:15;101104.75;;;-3.10;100.00
44198;BME280;30157;55.512;37.764;2024-01-30T00:41:41;101128.72;;;-2.94;100.00
44198;BME280;30157;55.512;37.764;2024-01-30T00:44:07;101114.44;;;-2.92;100.00
44198;BME280;30157;55.512;37.764;2024-01-30T00:46:33;101114.22;;;-2.95;100.00
44198;BME280;30157;55.512;37.764;2024-01-30T00:48:59;101128.16;;;-2.90;100.00
44198;BME280;30157;55.512;37.764;2024-01-30T00:51:24;101125.50;;;-2.92;100.00
44198;BME280;30157;55.512;37.764;2024-01-30T00:53:50;101115.91;;;-2.96;100.00
44198;BME280;30157;55.512;37.764;2024-01-30T00:56:16;101115.66;;;-2.99;100.00
44198;BME280;30157;55.512;37.764;2024-01-30T00:58:44;101102.84;;;-3.00;100.00
44198;BME280;30157;55.512;37.764;2024-01-30T01:01:10;101055.44;;;-3.37;100.00
44198;BME280;30157;55.512;37.764;2024-01-30T01:03:35;101098.69;;;-3.12;100.00
44198;BME280;30157;55.512;37.764;2024-01-30T01:06:01;101117.78;;;-3.05;100.00
44198;BME280;30157;55.512;37.764;2024-01-30T01:08:27;101121.31;;;-3.03;100.00
44198;BME280;30157;55.512;37.764;2024-01-30T01:10:52;101057.31;;;-3.34;100.00
44198;BME280;30157;55.512;37.764;2024-01-30T01:13:18;101104.63;;;-2.99;100.00
44198;BME280;30157;55.512;37.764;2024-01-30T01:15:44;101108.19;;;-2.97;100.00
44198;BME280;30157;55.512;37.764;2024-01-30T01:18:10;101097.88;;;-2.99;100.00
44198;BME280;30157;55.512;37.764;2024-01-30T01:20:35;101092.50;;;-3.04;100.00
44198;BME280;30157;55.512;37.764;2024-01-30T01:23:01;101068.44;;;-3.21;100.00
44198;BME280;30157;55.512;37.764;2024-01-30T01:25:27;101065.03;;;-3.21;100.00
44198;BME280;30157;55.512;37.764;2024-01-30T01:27:52;101119.00;;;-2.88;100.00
44198;BME280;30157;55.512;37.764;2024-01-30T01:30:18;101098.44;;;-3.03;100.00
44198;BME280;30157;55.512;37.764;2024-01-30T01:32:50;101105.47;;;-2.87;100.00
44198;BME280;30157;55.512;37.764;2024-01-30T01:35:27;101121.94;;;-2.82;100.00
44198;BME280;30157;55.512;37.764;2024-01-30T01:37:54;101107.06;;;-2.89;100.00
44198;BME280;30157;55.512;37.764;2024-01-30T01:40:24;101104.72;;;-2.86;100.00
44198;BME280;30157;55.512;37.764;2024-01-30T01:42:51;101107.03;;;-2.77;100.00
44198;BME280;30157;55.512;37.764;2024-01-30T01:45:21;101087.94;;;-2.84;100.00
44198;BME280;30157;55.512;37.764;2024-01-30T01:47:50;101106.91;;;-2.79;100.00
44198;BME280;30157;55.512;37.764;2024-01-30T01:50:17;101097.84;;;-2.75;100.00
44198;BME280;30157;55.512;37.764;2024-01-30T01:52:47;101032.66;;;-3.12;100.00
44198;BME280;30157;55.512;37.764;2024-01-30T01:55:14;101049.19;;;-3.05;100.00
44198;BME280;30157;55.512;37.764;2024-01-30T01:57:41;101049.31;;;-3.04;100.00
44198;BME280;30157;55.512;37.764;2024-01-30T02:00:08;101043.22;;;-3.06;100.00
44198;BME280;30157;55.512;37.764;2024-01-30T02:02:36;101076.09;;;-2.83;100.00
44198;BME280;30157;55.512;37.764;2024-01-30T02:05:02;101097.47;;;-2.68;100.00
44198;BME280;30157;55.512;37.764;2024-01-30T02:07:31;101081.91;;;-2.73;100.00
44198;BME280;30157;55.512;37.764;2024-01-30T02:09:57;101078.91;;;-2.67;100.00
44198;BME280;30157;55.512;37.764;2024-01-30T02:12:23;101066.09;;;-2.68;100.00
44198;BME280;30157;55.512;37.764;2024-01-30T02:14:50;101055.84;;;-2.70;100.00
44198;BME280;30157;55.512;37.764;2024-01-30T02:17:17;101069.84;;;-2.63;100.00
44198;BME280;30157;55.512;37.764;2024-01-30T02:19:43;101068.41;;;-2.60;100.00
44198;BME280;30157;55.512;37.764;2024-01-30T02:22:09;101058.81;;;-2.64;100.00
44198;BME280;30157;55.512;37.764;2024-01-30T02:24:35;101068.50;;;-2.58;100.00
44198;BME280;30157;55.512;37.764;2024-01-30T02:27:00;101003.53;;;-2.92;100.00
44198;BME280;30157;55.512;37.764;2024-01-30T02:29:26;101066.34;;;-2.52;100.00
44198;BME280;30157;55.512;37.764;2024-01-30T02:31:52;101068.22;;;-2.49;100.00
44198;BME280;30157;55.512;37.764;2024-01-30T02:34:18;101072.44;;;-2.50;100.00
44198;BME280;30157;55.512;37.764;2024-01-30T02:36:45;101072.66;;;-2.47;100.00
44198;BME280;30157;55.512;37.764;2024-01-30T02:39:11;101054.53;;;-2.51;100.00
44198;BME280;30157;55.512;37.764;2024-01-30T02:41:37;101020.25;;;-2.70;100.00
44198;BME280;30157;55.512;37.764;2024-01-30T02:44:03;101073.25;;;-2.38;100.00
44198;BME280;30157;55.512;37.764;2024-01-30T02:46:29;101057.72;;;-2.42;100.00
44198;BME280;30157;55.512;37.764;2024-01-30T02:48:55;100963.59;;;-3.06;100.00
44198;BME280;30157;55.512;37.764;2024-01-30T02:51:21;101074.38;;;-2.34;100.00
44198;BME280;30157;55.512;37.764;2024-01-30T02:53:47;101066.75;;;-2.34;100.00
44198;BME280;30157;55.512;37.764;2024-01-30T02:56:13;101073.78;;;-2.30;100.00
44198;BME280;30157;55.512;37.764;2024-01-30T02:58:40;101063.03;;;-2.26;100.00
44198;BME280;30157;55.512;37.764;2024-01-30T03:01:06;101059.19;;;-2.32;100.00
44198;BME280;30157;55.512;37.764;2024-01-30T03:03:33;101075.09;;;-2.23;100.00
44198;BME280;30157;55.512;37.764;2024-01-30T03:06:02;101069.22;;;-2.22;100.00
44198;BME280;30157;55.512;37.764;2024-01-30T03:08:28;101068.66;;;-2.18;100.00
44198;BME280;30157;55.512;37.764;2024-01-30T03:10:54;101061.47;;;-2.24;100.00
44198;BME280;30157;55.512;37.764;2024-01-30T03:13:19;101076.38;;;-2.16;100.00
44198;BME280;30157;55.512;37.764;2024-01-30T03:15:45;101067.84;;;-2.17;100.00
44198;BME280;30157;55.512;37.764;2024-01-30T03:18:11;101061.13;;;-2.16;100.00
44198;BME280;30157;55.512;37.764;2024-01-30T03:20:37;101069.72;;;-2.14;100.00
44198;BME280;30157;55.512;37.764;2024-01-30T03:23:03;101059.44;;;-2.16;100.00
44198;BME280;30157;55.512;37.764;2024-01-30T03:25:29;101081.06;;;-2.09;100.00
44198;BME280;30157;55.512;37.764;2024-01-30T03:27:54;101081.41;;;-2.05;100.00
44198;BME280;30157;55.512;37.764;2024-01-30T03:30:20;101075.91;;;-2.11;100.00
44198;BME280;30157;55.512;37.764;2024-01-30T03:32:46;101081.41;;;-2.05;100.00
44198;BME280;30157;55.512;37.764;2024-01-30T03:35:12;101081.59;;;-2.01;100.00
44198;BME280;30157;55.512;37.764;2024-01-30T03:37:37;101070.72;;;-2.12;100.00
44198;BME280;30157;55.512;37.764;2024-01-30T03:40:04;101084.91;;;-2.03;100.00
44198;BME280;30157;55.512;37.764;2024-01-30T03:42:30;101067.41;;;-2.11;100.00
44198;BME280;30157;55.512;37.764;2024-01-30T03:44:56;101092.75;;;-1.99;100.00
44198;BME280;30157;55.512;37.764;2024-01-30T03:47:21;101091.97;;;-1.98;100.00
44198;BME280;30157;55.512;37.764;2024-01-30T03:49:47;101091.09;;;-1.99;100.00
44198;BME280;30157;55.512;37.764;2024-01-30T03:52:13;101086.09;;;-1.97;100.00
44198;BME280;30157;55.512;37.764;2024-01-30T03:54:39;101089.63;;;-1.95;100.00
44198;BME280;30157;55.512;37.764;2024-01-30T03:57:04;101078.47;;;-1.97;100.00
44198;BME280;30157;55.512;37.764;2024-01-30T03:59:31;101075.94;;;-1.97;100.00
44198;BME280;30157;55.512;37.764;2024-01-30T04:01:56;101077.78;;;-1.95;100.00
44198;BME280;30157;55.512;37.764;2024-01-30T04:04:22;101076.69;;;-1.98;100.00
44198;BME280;30157;55.512;37.764;2024-01-30T04:06:48;101068.09;;;-2.00;100.00
44198;BME280;30157;55.512;37.764;2024-01-30T04:09:14;101087.47;;;-1.89;100.00
44198;BME280;30157;55.512;37.764;2024-01-30T04:11:41;101066.53;;;-1.98;100.00
44198;BME280;30157;55.512;37.764;2024-01-30T04:14:10;101097.09;;;-1.85;100.00
44198;BME280;30157;55.512;37.764;2024-01-30T04:16:36;101095.41;;;-1.84;100.00
44198;BME280;30157;55.512;37.764;2024-01-30T04:19:02;101071.72;;;-1.97;100.00
44198;BME280;30157;55.512;37.764;2024-01-30T04:21:27;101094.72;;;-1.82;100.00
44198;BME280;30157;55.512;37.764;2024-01-30T04:23:53;101092.09;;;-1.83;100.00
44198;BME280;30157;55.512;37.764;2024-01-30T04:26:19;101038.50;;;-2.12;100.00
44198;BME280;30157;55.512;37.764;2024-01-30T04:28:45;101081.81;;;-1.85;100.00
44198;BME280;30157;55.512;37.764;2024-01-30T04:31:11;101097.78;;;-1.74;100.00
44198;BME280;30157;55.512;37.764;2024-01-30T04:33:37;101035.19;;;-2.11;100.00
44198;BME280;30157;55.512;37.764;2024-01-30T04:36:03;101097.88;;;-1.73;100.00
44198;BME280;30157;55.512;37.764;2024-01-30T04:38:31;101099.47;;;-1.75;100.00
44198;BME280;30157;55.512;37.764;2024-01-30T04:40:57;101034.59;;;-2.07;100.00
44198;BME280;30157;55.512;37.764;2024-01-30T04:43:23;101092.88;;;-1.71;100.00
44198;BME280;30157;55.512;37.764;2024-01-30T04:45:49;101018.94;;;-2.13;100.00
44198;BME280;30157;55.512;37.764;2024-01-30T04:48:15;101064.19;;;-1.82;100.00
44198;BME280;30157;55.512;37.764;2024-01-30T04:50:41;101089.66;;;-1.69;100.00
44198;BME280;30157;55.512;37.764;2024-01-30T04:53:07;101084.66;;;-1.67;100.00
44198;BME280;30157;55.512;37.764;2024-01-30T04:55:36;101071.25;;;-1.78;100.00
44198;BME280;30157;55.512;37.764;2024-01-30T04:58:03;101093.19;;;-1.66;100.00
44198;BME280;30157;55.512;37.764;2024-01-30T05:00:29;101087.13;;;-1.69;100.00
44198;BME280;30157;55.512;37.764;2024-01-30T05:02:55;101099.38;;;-1.63;100.00
44198;BME280;30157;55.512;37.764;2024-01-30T05:05:21;101103.66;;;-1.62;100.00
44198;BME280;30157;55.512;37.764;2024-01-30T05:07:47;101037.16;;;-1.93;100.00
44198;BME280;30157;55.512;37.764;2024-01-30T05:10:13;101075.06;;;-1.71;100.00
44198;BME280;30157;55.512;37.764;2024-01-30T05:12:40;101105.53;;;-1.59;100.00
44198;BME280;30157;55.512;37.764;2024-01-30T05:15:06;101097.91;;;-1.59;100.00
44198;BME280;30157;55.512;37.764;2024-01-30T05:17:32;101038.84;;;-1.94;100.00
44198;BME280;30157;55.512;37.764;2024-01-30T05:19:58;101098.00;;;-1.58;100.00
44198;BME280;30157;55.512;37.764;2024-01-30T05:22:24;101077.34;;;-1.62;100.00
44198;BME280;30157;55.512;37.764;2024-01-30T05:24:50;101100.84;;;-1.53;100.00
44198;BME280;30157;55.512;37.764;2024-01-30T05:27:16;101096.53;;;-1.54;100.00
44198;BME280;30157;55.512;37.764;2024-01-30T05:29:42;101102.03;;;-1.48;100.00
44198;BME280;30157;55.512;37.764;2024-01-30T05:32:08;101100.34;;;-1.47;100.00
44198;BME280;30157;55.512;37.764;2024-01-30T05:34:35;101110.53;;;-1.47;100.00
44198;BME280;30157;55.512;37.764;2024-01-30T05:37:01;101099.38;;;-1.49;100.00
44198;BME280;30157;55.512;37.764;2024-01-30T05:39:27;101090.66;;;-1.53;100.00
44198;BME280;30157;55.512;37.764;2024-01-30T05:41:52;101105.72;;;-1.43;100.00
44198;BME280;30157;55.512;37.764;2024-01-30T05:44:18;101089.41;;;-1.46;100.00
44198;BME280;30157;55.512;37.764;2024-01-30T05:46:44;101109.38;;;-1.39;100.00
44198;BME280;30157;55.512;37.764;2024-01-30T05:49:10;101099.97;;;-1.40;100.00
44198;BME280;30157;55.512;37.764;2024-01-30T05:51:35;101043.66;;;-1.72;100.00
44198;BME280;30157;55.512;37.764;2024-01-30T05:54:01;101091.84;;;-1.34;100.00
44198;BME280;30157;55.512;37.764;2024-01-30T05:56:29;101100.16;;;-1.37;100.00
44198;BME280;30157;55.512;37.764;2024-01-30T05:58:55;101098.50;;;-1.37;100.00
44198;BME280;30157;55.512;37.764;2024-01-30T06:01:21;101111.41;;;-1.33;100.00
44198;BME280;30157;55.512;37.764;2024-01-30T06:03:46;101108.09;;;-1.32;100.00
44198;BME280;30157;55.512;37.764;2024-01-30T06:06:12;101066.47;;;-1.60;100.00
44198;BME280;30157;55.512;37.764;2024-01-30T06:08:38;101118.97;;;-1.35;100.00
44198;BME280;30157;55.512;37.764;2024-01-30T06:11:04;101119.28;;;-1.30;100.00
44198;BME280;30157;55.512;37.764;2024-01-30T06:13:30;101124.47;;;-1.29;100.00
44198;BME280;30157;55.512;37.764;2024-01-30T06:15:57;101121.22;;;-1.26;100.00
44198;BME280;30157;55.512;37.764;2024-01-30T06:18:23;101025.72;;;-1.87;100.00
44198;BME280;30157;55.512;37.764;2024-01-30T06:20:49;101128.97;;;-1.25;100.00
44198;BME280;30157;55.512;37.764;2024-01-30T06:23:15;101139.25;;;-1.23;100.00
44198;BME280;30157;55.512;37.764;2024-01-30T06:25:40;101103.69;;;-1.35;100.00
44198;BME280;30157;55.512;37.764;2024-01-30T06:28:06;101077.44;;;-1.47;100.00
44198;BME280;30157;55.512;37.764;2024-01-30T06:30:32;101070.56;;;-1.48;100.00
44198;BME280;30157;55.512;37.764;2024-01-30T06:32:58;101128.78;;;-1.14;100.00
44198;BME280;30157;55.512;37.764;2024-01-30T06:35:24;101132.28;;;-1.12;100.00
44198;BME280;30157;55.512;37.764;2024-01-30T06:37:50;101111.72;;;-1.15;100.00
44198;BME280;30157;55.512;37.764;2024-01-30T06:40:15;101129.84;;;-1.11;100.00
44198;BME280;30157;55.512;37.764;2024-01-30T06:42:41;101133.38;;;-1.09;100.00
44198;BME280;30157;55.512;37.764;2024-01-30T06:45:07;101121.41;;;-1.10;100.00
44198;BME280;30157;55.512;37.764;2024-01-30T06:47:33;101118.88;;;-1.10;100.00
44198;BME280;30157;55.512;37.764;2024-01-30T06:49:59;101132.19;;;-1.00;100.00
44198;BME280;30157;55.512;37.764;2024-01-30T06:52:25;101135.69;;;-0.98;100.00
44198;BME280;30157;55.512;37.764;2024-01-30T06:54:51;101140.91;;;-0.97;100.00
44198;BME280;30157;55.512;37.764;2024-01-30T06:57:17;101139.63;;;-0.90;100.00
44198;BME280;30157;55.512;37.764;2024-01-30T06:59:42;101134.72;;;-0.87;100.00
44198;BME280;30157;55.512;37.764;2024-01-30T07:02:10;101093.09;;;-1.14;100.00
44198;BME280;30157;55.512;37.764;2024-01-30T07:04:36;101093.47;;;-1.08;100.00
44198;BME280;30157;55.512;37.764;2024-01-30T07:07:06;101147.84;;;-0.81;100.00
44198;BME280;30157;55.512;37.764;2024-01-30T07:09:38;101150.59;;;-0.78;100.00
44198;BME280;30157;55.512;37.764;2024-01-30T07:12:04;101145.28;;;-0.81;100.00
44198;BME280;30157;55.512;37.764;2024-01-30T07:14:31;101116.91;;;-1.00;100.00
44198;BME280;30157;55.512;37.764;2024-01-30T07:16:57;101148.91;;;-0.77;100.00
44198;BME280;30157;55.512;37.764;2024-01-30T07:19:23;101109.84;;;-1.05;100.00
44198;BME280;30157;55.512;37.764;2024-01-30T07:21:49;101152.34;;;-0.77;100.00
44198;BME280;30157;55.512;37.764;2024-01-30T07:24:16;101098.06;;;-1.03;100.00
44198;BME280;30157;55.512;37.764;2024-01-30T07:26:42;101106.88;;;-0.97;100.00
44198;BME280;30157;55.512;37.764;2024-01-30T07:29:08;101155.38;;;-0.69;100.00
44198;BME280;30157;55.512;37.764;2024-01-30T07:31:34;101133.44;;;-0.80;100.00
44198;BME280;30157;55.512;37.764;2024-01-30T07:34:00;101155.59;;;-0.66;100.00
44198;BME280;30157;55.512;37.764;2024-01-30T07:36:26;101157.13;;;-0.68;100.00
44198;BME280;30157;55.512;37.764;2024-01-30T07:38:52;101157.22;;;-0.66;100.00
44198;BME280;30157;55.512;37.764;2024-01-30T07:41:20;101106.69;;;-0.87;100.00
44198;BME280;30157;55.512;37.764;2024-01-30T07:43:45;101104.50;;;-0.81;100.00
44198;BME280;30157;55.512;37.764;2024-01-30T07:46:11;101095.47;;;-0.76;100.00
44198;BME280;30157;55.512;37.764;2024-01-30T07:48:37;101157.44;;;-0.35;100.00
44198;BME280;30157;55.512;37.764;2024-01-30T07:51:03;101155.09;;;-0.32;100.00
44198;BME280;30157;55.512;37.764;2024-01-30T07:53:30;101153.41;;;-0.31;100.00
44198;BME280;30157;55.512;37.764;2024-01-30T07:56:02;101090.75;;;-0.70;100.00
44198;BME280;30157;55.512;37.764;2024-01-30T07:58:28;101150.34;;;-0.26;100.00
44198;BME280;30157;55.512;37.764;2024-01-30T08:00:54;101156.34;;;-0.25;100.00
44198;BME280;30157;55.512;37.764;2024-01-30T08:03:22;101159.75;;;-0.25;100.00
44198;BME280;30157;55.512;37.764;2024-01-30T08:05:48;101162.22;;;-0.26;100.00
44198;BME280;30157;55.512;37.764;2024-01-30T08:08:14;101086.59;;;-0.68;100.00
44198;BME280;30157;55.512;37.764;2024-01-30T08:10:39;101164.56;;;-0.16;100.00
44198;BME280;30157;55.512;37.764;2024-01-30T08:13:06;101155.91;;;-0.18;100.00
44198;BME280;30157;55.512;37.764;2024-01-30T08:15:32;101163.13;;;-0.11;100.00
44198;BME280;30157;55.512;37.764;2024-01-30T08:17:57;101136.88;;;-0.23;100.00
44198;BME280;30157;55.512;37.764;2024-01-30T08:20:25;101158.94;;;-0.10;100.00
44198;BME280;30157;55.512;37.764;2024-01-30T08:22:52;101113.47;;;-0.31;100.00
44198;BME280;30157;55.512;37.764;2024-01-30T08:25:17;101129.06;;;-0.11;100.00
44198;BME280;30157;55.512;37.764;2024-01-30T08:27:45;101147.97;;;0.06;100.00
44198;BME280;30157;55.512;37.764;2024-01-30T08:30:11;101125.75;;;-0.10;100.00
44198;BME280;30157;55.512;37.764;2024-01-30T08:32:38;101150.31;;;0.03;100.00
44198;BME280;30157;55.512;37.764;2024-01-30T08:35:04;101146.41;;;-0.06;100.00
44198;BME280;30157;55.512;37.764;2024-01-30T08:37:31;101160.03;;;0.08;100.00
44198;BME280;30157;55.512;37.764;2024-01-30T08:39:57;101156.94;;;0.14;100.00
44198;BME280;30157;55.512;37.764;2024-01-30T08:42:23;101143.09;;;0.10;100.00
44198;BME280;30157;55.512;37.764;2024-01-30T08:44:49;101143.88;;;0.09;100.00
44198;BME280;30157;55.512;37.764;2024-01-30T08:47:17;101133.78;;;0.11;100.00
44198;BME280;30157;55.512;37.764;2024-01-30T08:49:44;101143.66;;;0.20;100.00
44198;BME280;30157;55.512;37.764;2024-01-30T08:52:11;101137.06;;;0.23;100.00
44198;BME280;30157;55.512;37.764;2024-01-30T08:54:37;101136.84;;;0.20;100.00
44198;BME280;30157;55.512;37.764;2024-01-30T08:57:03;101113.72;;;0.17;100.00
44198;BME280;30157;55.512;37.764;2024-01-30T08:59:30;101135.47;;;0.25;100.00
44198;BME280;30157;55.512;37.764;2024-01-30T09:01:56;101142.09;;;0.22;100.00
44198;BME280;30157;55.512;37.764;2024-01-30T09:04:24;101010.75;;;-0.57;100.00
44198;BME280;30157;55.512;37.764;2024-01-30T09:06:50;101145.34;;;0.19;100.00
44198;BME280;30157;55.512;37.764;2024-01-30T09:09:17;101130.00;;;0.19;100.00
44198;BME280;30157;55.512;37.764;2024-01-30T09:11:44;101135.03;;;0.18;100.00
44198;BME280;30157;55.512;37.764;2024-01-30T09:14:17;101150.88;;;0.27;100.00
44198;BME280;30157;55.512;37.764;2024-01-30T09:16:43;101134.66;;;0.26;100.00
44198;BME280;30157;55.512;37.764;2024-01-30T09:19:09;101129.72;;;0.29;100.00
44198;BME280;30157;55.512;37.764;2024-01-30T09:21:35;101130.72;;;0.31;100.00
44198;BME280;30157;55.512;37.764;2024-01-30T09:24:02;101127.72;;;0.24;100.00
44198;BME280;30157;55.512;37.764;2024-01-30T09:26:31;101094.34;;;0.06;100.00
44198;BME280;30157;55.512;37.764;2024-01-30T09:28:57;101088.16;;;0.02;100.00
44198;BME280;30157;55.512;37.764;2024-01-30T09:31:23;101150.16;;;0.29;100.00
44198;BME280;30157;55.512;37.764;2024-01-30T09:33:49;101087.72;;;-0.06;100.00
44198;BME280;30157;55.512;37.764;2024-01-30T09:36:16;101132.03;;;0.25;100.00
44198;BME280;30157;55.512;37.764;2024-01-30T09:38:45;101149.28;;;0.29;100.00
44198;BME280;30157;55.512;37.764;2024-01-30T09:41:11;101151.16;;;0.31;100.00
44198;BME280;30157;55.512;37.764;2024-01-30T09:43:38;101108.41;;;-0.01;100.00
44198;BME280;30157;55.512;37.764;2024-01-30T09:46:12;101094.97;;;0.02;100.00
44198;BME280;30157;55.512;37.764;2024-01-30T09:48:41;101084.84;;;0.03;100.00
44198;BME280;30157;55.512;37.764;2024-01-30T09:51:09;101147.34;;;0.40;100.00
44198;BME280;30157;55.512;37.764;2024-01-30T09:53:36;101121.66;;;0.37;100.00
44198;BME280;30157;55.512;37.764;2024-01-30T09:56:03;101146.81;;;0.45;100.00
44198;BME280;30157;55.512;37.764;2024-01-30T09:58:29;101135.91;;;0.48;100.00
44198;BME280;30157;55.512;37.764;2024-01-30T10:00:55;101105.09;;;0.30;100.00
44198;BME280;30157;55.512;37.764;2024-01-30T10:03:21;101071.28;;;0.19;100.00
44198;BME280;30157;55.512;37.764;2024-01-30T10:05:53;101119.72;;;0.47;100.00
44198;BME280;30157;55.512;37.764;2024-01-30T10:08:19;101130.16;;;0.52;100.00
44198;BME280;30157;55.512;37.764;2024-01-30T10:10:49;101118.47;;;0.41;100.00
44198;BME280;30157;55.512;37.764;2024-01-30T10:13:16;101127.63;;;0.52;100.00
44198;BME280;30157;55.512;37.764;2024-01-30T10:15:42;101134.50;;;0.53;100.00
44198;BME280;30157;55.512;37.764;2024-01-30T10:18:08;101118.72;;;0.45;100.00
44198;BME280;30157;55.512;37.764;2024-01-30T10:20:36;101135.28;;;0.52;100.00
44198;BME280;30157;55.512;37.764;2024-01-30T10:23:04;101081.50;;;0.19;100.00
44198;BME280;30157;55.512;37.764;2024-01-30T10:25:31;101134.50;;;0.53;100.00
44198;BME280;30157;55.512;37.764;2024-01-30T10:27:58;101119.72;;;0.47;100.00
44198;BME280;30157;55.512;37.764;2024-01-30T10:30:24;101142.59;;;0.61;100.00
44198;BME280;30157;55.512;37.764;2024-01-30T10:32:50;101082.81;;;0.27;100.00
44198;BME280;30157;55.512;37.764;2024-01-30T10:35:17;101140.75;;;0.58;100.00
44198;BME280;30157;55.512;37.764;2024-01-30T10:37:44;101088.00;;;0.29;100.00
44198;BME280;30157;55.512;37.764;2024-01-30T10:40:15;101074.88;;;0.23;100.00
44198;BME280;30157;55.512;37.764;2024-01-30T10:42:43;101126.81;;;0.53;100.00
44198;BME280;30157;55.512;37.764;2024-01-30T10:45:11;101032.72;;;-0.01;100.00
44198;BME280;30157;55.512;37.764;2024-01-30T10:47:40;101130.63;;;0.60;100.00
44198;BME280;30157;55.512;37.764;2024-01-30T10:50:09;101139.34;;;0.63;100.00
44198;BME280;30157;55.512;37.764;2024-01-30T10:53:14;101141.97;;;0.65;100.00
44198;BME280;30157;55.512;37.764;2024-01-30T10:55:41;101066.69;;;0.28;100.00
44198;BME280;30157;55.512;37.764;2024-01-30T10:58:08;101124.63;;;0.59;100.00
44198;BME280;30157;55.512;37.764;2024-01-30T11:00:36;101142.22;;;0.70;100.00
44198;BME280;30157;55.512;37.764;2024-01-30T11:03:02;101142.59;;;0.76;100.00
44198;BME280;30157;55.512;37.764;2024-01-30T11:05:29;101126.19;;;0.72;100.00
44198;BME280;30157;55.512;37.764;2024-01-30T11:07:55;101119.38;;;0.73;100.00
44198;BME280;30157;55.512;37.764;2024-01-30T11:10:20;101130.94;;;0.81;100.00
44198;BME280;30157;55.512;37.764;2024-01-30T11:12:46;101138.06;;;0.87;100.00
44198;BME280;30157;55.512;37.764;2024-01-30T11:15:14;101147.50;;;0.88;100.00
44198;BME280;30157;55.512;37.764;2024-01-30T11:20:10;101143.88;;;0.84;100.00
44198;BME280;30157;55.512;37.764;2024-01-30T11:22:37;101135.69;;;0.75;100.00
44198;BME280;30157;55.512;37.764;2024-01-30T11:25:03;101152.25;;;0.81;100.00
44198;BME280;30157;55.512;37.764;2024-01-30T11:27:33;101150.41;;;0.79;100.00
44198;BME280;30157;55.512;37.764;2024-01-30T11:30:02;101084.28;;;0.39;100.00
44198;BME280;30157;55.512;37.764;2024-01-30T11:32:30;101141.28;;;0.68;100.00
44198;BME280;30157;55.512;37.764;2024-01-30T11:34:57;101073.75;;;0.32;100.00
44198;BME280;30157;55.512;37.764;2024-01-30T11:37:25;101139.84;;;0.73;100.00
44198;BME280;30157;55.512;37.764;2024-01-30T11:39:53;101131.13;;;0.69;100.00
44198;BME280;30157;55.512;37.764;2024-01-30T11:42:19;101114.56;;;0.62;100.00
44198;BME280;30157;55.512;37.764;2024-01-30T11:44:48;101149.28;;;0.74;100.00
44198;BME280;30157;55.512;37.764;2024-01-30T11:47:14;101139.03;;;0.74;100.00
44198;BME280;30157;55.512;37.764;2024-01-30T11:49:41;101073.53;;;0.29;100.00
44198;BME280;30157;55.512;37.764;2024-01-30T11:52:08;101134.72;;;0.73;100.00
44198;BME280;30157;55.512;37.764;2024-01-30T11:54:33;101138.88;;;0.71;100.00
44198;BME280;30157;55.512;37.764;2024-01-30T11:57:00;101152.03;;;0.77;100.00
44198;BME280;30157;55.512;37.764;2024-01-30T11:59:26;101102.84;;;0.51;100.00
44198;BME280;30157;55.512;37.764;2024-01-30T12:01:52;101138.00;;;0.70;100.00
44198;BME280;30157;55.512;37.764;2024-01-30T12:04:18;101153.69;;;0.76;100.00
44198;BME280;30157;55.512;37.764;2024-01-30T12:06:44;101157.22;;;0.78;100.00
44198;BME280;30157;55.512;37.764;2024-01-30T12:09:10;101136.94;;;0.66;100.00
44198;BME280;30157;55.512;37.764;2024-01-30T12:11:45;101160.72;;;0.80;100.00
44198;BME280;30157;55.512;37.764;2024-01-30T12:14:12;101158.53;;;0.72;100.00
44198;BME280;30157;55.512;37.764;2024-01-30T12:16:38;101165.59;;;0.76;100.00
44198;BME280;30157;55.512;37.764;2024-01-30T12:19:04;101175.53;;;0.71;100.00
44198;BME280;30157;55.512;37.764;2024-01-30T12:21:30;101150.19;;;0.59;100.00
44198;BME280;30157;55.512;37.764;2024-01-30T12:23:56;101169.56;;;0.71;100.00
44198;BME280;30157;55.512;37.764;2024-01-30T12:26:23;101170.25;;;0.68;100.00
44198;BME280;30157;55.512;37.764;2024-01-30T12:28:54;101165.69;;;0.62;100.00
44198;BME280;30157;55.512;37.764;2024-01-30T12:31:27;101157.66;;;0.56;100.00